Sapporo, Japan

9:03 PM JST on March 28, 2017 (GMT +0900)
Rue des Sausses | | Change Station

Elev 0 ft 43.05 °N, 141.33 °E | Updated 17 minutes ago

Clear
Clear
37.0 °F
Feels Like 37 °F
N
0.6
Wind Variable Wind from SE
Gusts 1.2 mph

Today
High -- | Low -- °F
--% Chance of Precip.
Yesterday
High -- | Low -- °F
Precip. -- in
Pressure 30.01 in
Visibility 6.2 miles
Clouds Few 500 ft
Scattered Clouds 5000 ft
Mostly Cloudy 8000 ft
Windchill 37 °F
Dew Point 32 °F
Humidity 80%
Rainfall 0.10 in
Snow Depth Not available.
5:24 AM 5:55 PM
New Moon, 0% visible
METAR RJCC 281130Z 16003KT 9999 -SHSNRA FEW005 SCT050 BKN080 M00/M00 Q1016 RMK 1ST005 4CU050 6AC080 A3003
Pressure 30.01 in
Visibility 6.2 miles
Clouds Few 500 ft
Scattered Clouds 5000 ft
Mostly Cloudy 8000 ft
Windchill 37 °F
Dew Point 32 °F
Humidity 80%
Rainfall 0.10 in
Snow Depth Not available.
5:24 AM 5:55 PM
New Moon, 0% visible
METAR RJCC 281130Z 16003KT 9999 -SHSNRA FEW005 SCT050 BKN080 M00/M00 Q1016 RMK 1ST005 4CU050 6AC080 A3003

Get Severe Weather Alerts

Thanks for signing up!

Be on the lookout for a verification email in your inbox.

You'll start receiving the daily forecast at 8 AM.

×

10-Day Weather Forecast

No radar image for this location.
×

Almanac

Astronomy

Mar. 28, 2017 Rise Set
Actual Time
Civil Twilight
Nautical Twilight
Astronomical Twilight
Moon
Length of Visible Light
Length of Day
Tomorrow will be .
, % of the Moon is Illuminated

Today's Extremes

Country Highs Country Lows

Community

WunderPhotos

Upload Photos

1,962,540 photos uploaded!

WunderBlog® & News

Nearby

Air Quality

  Air Quality AQ Index Pollutant
Not available.

Snow Depth

Station Depth Elevation

Earthquake Activity

City Distance Mag. Time & Date
Minimum magnitude displayed is 2.5.

Earthquake Activity

City Distance Mag. Time & Date
Minimum magnitude displayed is 2.5.

Coastal Water Temperatures

Place Temperature

Stations

Nearby Weather Stations

Station Location Temp. Windchill Dew Point Humidity Wind Precip. Elev Updated Type